Terminal Aerodrome Forecast
Issued by NWS Corpus Christi, TX

Home | Current Version | Previous Version | Text Only | Print | Product List | Glossary On
Versions: 1 2 3 4 5 6 7 8 9 10 11 12 13 14 15 16
000
FTUS44 KCRP 300537
TAFCRP
TAF
KCRP 300537Z 3006/0106 16007KT P6SM FEW015 SCT250
     FM301000 15005KT P6SM VCSH SCT015
     FM301400 16014KT P6SM SCT025 PROB30 3015/3021 4SM TSRA BR
      BKN025CB BKN060
     FM302100 14015G20KT P6SM SCT030 OVC120
     FM010100 15010KT P6SM FEW020 BKN120=

USA.gov is the U.S. government's official web portal to all federal, state and local government web resources and services.